Time;durP1;ratioP1;P1;durP2;ratioP2;P2;SDS_P1;SDS_P2;PMS_P1;PMS_P2;Temp;Humidity;BMP_temperature;BMP_pressure;BME280_temperature;BME280_humidity;BME280_pressure;Samples;Min_cycle;Max_cycle;Signal;HPM_P1;HPM_P2
2023/09/26 00:01:30;;;;;;;0.80;0.60;;;;;;;20.13;66.86;100629.16;5347862;26;34430;-80
2023/09/26 00:03:58;;;;;;;0.85;0.85;;;;;;;19.90;67.84;100619.19;5367618;26;34675;-80
2023/09/26 00:06:27;;;;;;;0.37;0.17;;;;;;;20.22;66.25;100622.28;5349294;26;34412;-80
2023/09/26 00:08:54;;;;;;;0.30;0.30;;;;;;;19.97;67.40;100625.84;5367375;26;33920;-80
2023/09/26 00:11:22;;;;;;;1.62;1.52;;;;;;;20.06;67.16;100627.88;5367519;26;33316;-81
2023/09/26 00:13:50;;;;;;;0.68;0.60;;;;;;;20.03;67.35;100628.06;5349123;26;33957;-81
2023/09/26 00:16:18;;;;;;;3.10;0.70;;;;;;;20.10;66.87;100632.06;5367947;26;33846;-81
2023/09/26 00:18:46;;;;;;;0.65;0.60;;;;;;;20.05;66.95;100631.53;5367156;26;34131;-81
2023/09/26 00:21:14;;;;;;;0.35;0.35;;;;;;;19.64;68.68;100632.53;5367901;26;33275;-81
2023/09/26 00:23:43;;;;;;;0.43;0.43;;;;;;;20.23;66.47;100625.84;5366547;26;33941;-81
2023/09/26 00:26:11;;;;;;;2.37;1.62;;;;;;;19.82;67.78;100617.03;5367743;26;34088;-81
2023/09/26 00:28:40;;;;;;;0.60;0.60;;;;;;;19.72;68.30;100629.34;5330355;26;33270;-80
2023/09/26 00:31:07;;;;;;;2.90;0.73;;;;;;;19.67;68.35;100623.47;5387054;26;34225;-80
2023/09/26 00:33:35;;;;;;;4.10;1.35;;;;;;;19.71;68.60;100626.78;5348871;26;33794;-80
2023/09/26 00:36:07;;;;;;;8.48;0.80;;;;;;;19.81;68.08;100620.69;5349645;26;33109;-81
2023/09/26 00:38:35;;;;;;;;;;;;;;;19.57;68.75;100612.47;5368948;26;34593;-81
2023/09/26 00:41:03;;;;;;;0.35;0.20;;;;;;;19.97;67.16;100622.28;5368669;26;33135;-81
2023/09/26 00:43:31;;;;;;;0.22;0.20;;;;;;;19.76;67.86;100621.97;5348709;26;33452;-81
2023/09/26 00:46:00;;;;;;;0.82;0.60;;;;;;;19.83;67.83;100616.06;5364192;26;34053;-80
2023/09/26 00:48:28;;;;;;;0.80;0.60;;;;;;;19.77;67.92;100615.66;5364466;26;34160;-81
2023/09/26 00:50:56;;;;;;;3.60;1.12;;;;;;;19.79;67.91;100617.25;5364479;26;33583;-81
2023/09/26 00:53:25;;;;;;;0.32;0.28;;;;;;;19.71;68.26;100610.72;5363101;26;34871;-81
2023/09/26 00:55:55;;;;;;;0.47;0.43;;;;;;;19.86;66.84;100613.19;5363018;26;33774;-80
2023/09/26 00:58:24;;;;;;;1.65;1.55;;;;;;;19.87;66.86;100616.72;5343516;26;33630;-80
2023/09/26 01:00:53;;;;;;;0.65;0.45;;;;;;;19.71;67.57;100616.06;5325420;26;33745;-80
2023/09/26 01:03:21;;;;;;;0.28;0.28;;;;;;;19.59;68.12;100610.53;5364493;26;33489;-80
2023/09/26 01:05:49;;;;;;;1.08;0.80;;;;;;;19.72;67.46;100607.06;5363331;26;33897;-80
2023/09/26 01:08:18;;;;;;;0.40;0.40;;;;;;;19.72;67.79;100609.75;5363891;26;35101;-80
2023/09/26 01:10:46;;;;;;;0.30;0.30;;;;;;;19.73;67.46;100608.78;5345807;26;33598;-80
2023/09/26 01:13:14;;;;;;;1.58;0.80;;;;;;;19.65;67.57;100612.84;5345859;26;34032;-79
2023/09/26 01:15:43;;;;;;;0.70;0.70;;;;;;;19.92;65.97;100614.56;5327528;26;34480;-80
2023/09/26 01:18:16;;;;;;;3.90;1.00;;;;;;;19.84;66.48;100616.91;5345590;26;34216;-80
2023/09/26 01:20:45;;;;;;;0.30;0.30;;;;;;;19.74;66.79;100615.84;5345762;26;33327;-80
2023/09/26 01:23:14;;;;;;;1.02;0.55;;;;;;;19.72;66.08;100615.09;5345994;26;32895;-81
2023/09/26 01:25:42;;;;;;;0.50;0.45;;;;;;;19.53;67.46;100610.13;5346151;26;33007;-80
2023/09/26 01:28:15;;;;;;;2.45;0.75;;;;;;;19.50;67.57;100611.16;5345443;26;33552;-80
2023/09/26 01:30:43;;;;;;;1.48;0.60;;;;;;;19.59;66.92;100620.41;5345461;26;32761;-80
2023/09/26 01:33:15;;;;;;;0.68;0.68;;;;;;;19.57;67.12;100615.16;5345567;26;34174;-80
2023/09/26 01:35:43;;;;;;;0.30;0.30;;;;;;;19.54;66.98;100604.62;5364094;26;34282;-81
2023/09/26 01:38:12;;;;;;;0.47;0.47;;;;;;;19.54;66.95;100601.97;5345268;26;35879;-81
2023/09/26 01:40:41;;;;;;;0.20;0.17;;;;;;;19.53;66.64;100613.66;5345016;26;33274;-81
2023/09/26 01:43:08;;;;;;;0.10;0.10;;;;;;;19.53;66.85;100620.81;5345858;26;33698;-81
2023/09/26 01:45:37;;;;;;;0.52;0.20;;;;;;;19.46;67.04;100612.34;5344287;26;33691;-81
2023/09/26 01:48:05;;;;;;;1.17;1.15;;;;;;;19.39;67.28;100614.56;5345632;26;34401;-81
2023/09/26 01:50:35;;;;;;;0.43;0.43;;;;;;;19.43;66.92;100607.22;5345954;26;33246;-81
2023/09/26 01:53:05;;;;;;;1.52;1.02;;;;;;;19.40;67.04;100618.97;5364141;26;32856;-81
2023/09/26 01:55:34;;;;;;;0.57;0.57;;;;;;;19.28;67.32;100609.09;5346580;26;33685;-80
2023/09/26 01:58:02;;;;;;;0.40;0.40;;;;;;;19.34;67.04;100613.19;5326793;26;33998;-81
2023/09/26 02:00:31;;;;;;;0.43;0.40;;;;;;;19.37;66.84;100615.63;5327752;26;33708;-81
2023/09/26 02:02:58;;;;;;;0.65;0.13;;;;;;;19.24;67.04;100617.44;5345702;26;33836;-81
2023/09/26 02:05:26;;;;;;;0.85;0.75;;;;;;;19.42;66.40;100609.03;5326160;26;33315;-80
2023/09/26 02:07:54;;;;;;;0.93;0.93;;;;;;;19.60;65.59;100608.75;5365190;26;34897;-80
2023/09/26 02:10:23;;;;;;;1.33;0.95;;;;;;;19.31;66.55;100621.41;5345904;26;33675;-80
2023/09/26 02:12:51;;;;;;;3.08;0.95;;;;;;;19.25;66.58;100619.16;5327233;26;34755;-81
2023/09/26 02:15:20;;;;;;;1.27;0.45;;;;;;;19.17;67.07;100608.94;5345683;26;34070;-81
2023/09/26 02:17:48;;;;;;;0.65;0.50;;;;;;;19.12;67.35;100613.75;5327437;26;33797;-81
2023/09/26 02:20:17;;;;;;;1.35;0.95;;;;;;;19.07;67.61;100611.38;5327315;26;33938;-80
2023/09/26 02:22:47;;;;;;;1.30;0.70;;;;;;;19.02;67.77;100610.81;5327255;26;33466;-81
2023/09/26 02:25:18;;;;;;;0.47;0.47;;;;;;;19.22;66.78;100604.13;5309051;26;32906;-80
2023/09/26 02:27:48;;;;;;;0.15;0.15;;;;;;;19.21;66.61;100606.94;5365721;26;33629;-80
2023/09/26 02:30:21;;;;;;;2.00;0.95;;;;;;;19.18;66.54;100608.84;5326668;26;33322;-80
2023/09/26 02:32:49;;;;;;;0.93;0.93;;;;;;;18.93;67.91;100611.41;5345412;26;33952;-80
2023/09/26 02:35:20;;;;;;;0.98;0.65;;;;;;;19.07;67.43;100614.03;5345260;26;34024;-80
2023/09/26 02:37:48;;;;;;;0.17;0.17;;;;;;;19.10;67.01;100608.50;5345169;26;34137;-80
2023/09/26 02:40:16;;;;;;;0.22;0.22;;;;;;;18.95;67.78;100619.38;5327158;26;33454;-80
2023/09/26 02:42:45;;;;;;;0.60;0.43;;;;;;;19.09;67.20;100624.69;5341862;26;101698;-79
2023/09/26 02:45:13;;;;;;;1.00;0.90;;;;;;;19.07;67.33;100613.19;5338790;26;34059;-80
2023/09/26 02:47:42;;;;;;;0.50;0.50;;;;;;;19.10;66.97;100613.84;5329656;26;33904;-80
2023/09/26 02:50:11;;;;;;;3.97;1.15;;;;;;;18.96;67.80;100621.94;5367799;26;34429;-80
2023/09/26 02:52:42;;;;;;;0.82;0.55;;;;;;;19.01;67.47;100626.97;5348830;26;33223;-80
2023/09/26 02:55:11;;;;;;;1.75;0.30;;;;;;;18.96;67.33;100619.25;5349674;26;34182;-80
2023/09/26 02:57:39;;;;;;;0.35;0.35;;;;;;;18.95;66.92;100612.19;5368173;26;34340;-80
2023/09/26 03:00:17;;;;;;;0.45;0.45;;;;;;;18.98;67.37;100622.69;5368247;26;33540;-80
2023/09/26 03:02:47;;;;;;;0.95;0.73;;;;;;;18.86;67.41;100618.16;5368884;26;34003;-80
2023/09/26 03:05:16;;;;;;;0.50;0.50;;;;;;;18.89;67.46;100621.47;5349712;26;34082;-80
2023/09/26 03:07:44;;;;;;;0.25;0.22;;;;;;;18.86;67.66;100616.31;5329694;26;33218;-80
2023/09/26 03:10:14;;;;;;;0.80;0.68;;;;;;;18.80;68.31;100618.53;5349595;26;34056;-80
2023/09/26 03:12:44;;;;;;;0.65;0.65;;;;;;;18.88;67.90;100618.88;5368164;26;34015;-80
2023/09/26 03:15:12;;;;;;;0.65;0.65;;;;;;;19.12;66.99;100619.94;5367880;26;34033;-80
2023/09/26 03:17:40;;;;;;;0.47;0.47;;;;;;;18.77;68.37;100618.75;5349143;26;33820;-80
2023/09/26 03:20:08;;;;;;;0.45;0.45;;;;;;;18.82;68.87;100616.63;5349224;26;32528;-80
2023/09/26 03:22:37;;;;;;;2.62;1.50;;;;;;;18.87;68.50;100611.84;5367710;26;33556;-80
2023/09/26 03:25:05;;;;;;;1.80;1.65;;;;;;;18.60;70.63;100612.63;5368111;26;33663;-80
2023/09/26 03:27:33;;;;;;;0.70;0.70;;;;;;;18.84;70.49;100614.69;5349031;26;34126;-79
2023/09/26 03:30:01;;;;;;;2.33;1.33;;;;;;;18.77;70.43;100618.75;5349595;26;33600;-79
2023/09/26 03:32:30;;;;;;;4.65;1.52;;;;;;;18.79;71.43;100611.47;5367271;26;33289;-79
2023/09/26 03:34:58;;;;;;;1.37;1.12;;;;;;;18.75;71.96;100616.16;5367506;26;33630;-79
2023/09/26 03:37:26;;;;;;;3.45;1.55;;;;;;;18.85;72.14;100617.28;5367807;26;35375;-80
2023/09/26 03:39:54;;;;;;;0.85;0.65;;;;;;;18.90;72.63;100614.31;5348944;26;33709;-80
2023/09/26 03:42:22;;;;;;;3.10;1.45;;;;;;;19.21;71.05;100621.16;5367825;26;34473;-81
2023/09/26 03:44:50;;;;;;;1.37;1.08;;;;;;;19.13;71.58;100621.69;5367779;26;33569;-81
2023/09/26 03:47:18;;;;;;;1.10;0.65;;;;;;;19.00;72.81;100626.13;5347883;26;33263;-80
2023/09/26 03:49:45;;;;;;;0.55;0.52;;;;;;;18.86;73.91;100623.50;5367161;26;33666;-81
2023/09/26 03:52:13;;;;;;;1.35;1.25;;;;;;;19.23;72.15;100626.41;5367967;26;33727;-81
2023/09/26 03:54:41;;;;;;;0.93;0.52;;;;;;;19.16;72.53;100625.97;5348176;26;33000;-82
2023/09/26 03:57:08;;;;;;;2.22;0.88;;;;;;;19.29;72.41;100626.03;5367829;26;33986;-82
2023/09/26 03:59:36;;;;;;;1.77;1.37;;;;;;;19.17;72.91;100628.53;5348919;26;32704;-82
2023/09/26 04:02:04;;;;;;;2.03;1.00;;;;;;;19.34;72.29;100623.87;5367545;26;32695;-82
2023/09/26 04:04:32;;;;;;;3.78;2.80;;;;;;;19.32;72.57;100615.09;5330409;26;32894;-82
2023/09/26 04:06:59;;;;;;;0.85;0.85;;;;;;;19.42;71.99;100616.22;5387633;26;34250;-82
2023/09/26 04:09:27;;;;;;;0.88;0.82;;;;;;;19.48;72.46;100614.94;5329649;26;32551;-82
2023/09/26 04:11:55;;;;;;;1.98;1.48;;;;;;;19.56;72.25;100617.91;5368182;26;33832;-82
2023/09/26 04:14:23;;;;;;;1.85;1.02;;;;;;;19.64;71.95;100620.97;5368256;26;33991;-82
2023/09/26 04:16:50;;;;;;;0.73;0.73;;;;;;;19.69;71.97;100613.47;5388325;26;33905;-82
2023/09/26 04:19:18;;;;;;;3.12;0.90;;;;;;;19.97;71.17;100620.47;5368748;26;34081;-81
2023/09/26 04:21:46;;;;;;;2.05;1.35;;;;;;;20.11;70.75;100615.00;5368462;26;34777;-81
2023/09/26 04:24:14;;;;;;;1.80;1.10;;;;;;;20.04;70.87;100613.72;5349989;26;32709;-81
2023/09/26 04:26:44;;;;;;;2.20;1.48;;;;;;;20.18;69.62;100616.28;5368900;26;34176;-82
2023/09/26 04:29:12;;;;;;;2.55;1.50;;;;;;;20.02;70.38;100623.69;5368427;26;34536;-82
2023/09/26 04:31:40;;;;;;;2.20;1.92;;;;;;;20.28;69.60;100618.31;5349404;26;33239;-81
2023/09/26 04:34:08;;;;;;;6.32;1.98;;;;;;;20.16;69.56;100626.25;5368277;26;34142;-81
2023/09/26 04:36:35;;;;;;;0.65;0.65;;;;;;;20.23;69.75;100625.84;5368376;26;34836;-81
2023/09/26 04:39:03;;;;;;;2.53;1.00;;;;;;;20.47;69.21;100621.44;5349333;26;33502;-81
2023/09/26 04:41:31;;;;;;;0.90;0.90;;;;;;;20.67;68.15;100630.72;5368426;26;34328;-81
2023/09/26 04:43:58;;;;;;;1.10;1.05;;;;;;;20.65;67.99;100625.47;5349099;26;34767;-81
2023/09/26 04:46:26;;;;;;;0.55;0.55;;;;;;;20.74;67.92;100628.44;5368740;26;34208;-82
2023/09/26 04:48:54;;;;;;;1.60;1.50;;;;;;;20.97;67.17;100632.97;5368187;26;33680;-82
2023/09/26 04:51:21;;;;;;;1.95;1.10;;;;;;;20.89;66.73;100632.72;5349299;26;34283;-82
2023/09/26 04:53:49;;;;;;;1.23;0.93;;;;;;;20.99;66.68;100633.75;5345498;26;32919;-81
2023/09/26 04:56:17;;;;;;;2.83;1.27;;;;;;;20.90;66.86;100637.97;5347059;26;34954;-80
2023/09/26 04:58:45;;;;;;;1.30;0.85;;;;;;;21.01;66.55;100639.84;5346887;26;34531;-80
2023/09/26 05:01:14;;;;;;;3.47;1.90;;;;;;;21.27;65.25;100632.53;5328253;26;33133;-80
2023/09/26 05:03:43;;;;;;;1.08;0.98;;;;;;;21.25;65.41;100639.84;5365575;26;33534;-80
2023/09/26 05:06:12;;;;;;;0.80;0.62;;;;;;;21.23;65.31;100636.44;5328091;26;34119;-80
2023/09/26 05:08:39;;;;;;;1.02;1.02;;;;;;;21.53;64.56;100641.34;5347145;26;33367;-80
2023/09/26 05:11:15;;;;;;;0.30;0.30;;;;;;;21.50;64.34;100643.41;5365252;26;35456;-80
2023/09/26 05:13:43;;;;;;;0.95;0.95;;;;;;;21.60;63.90;100639.91;5347552;26;33198;-80
2023/09/26 05:16:13;;;;;;;0.68;0.68;;;;;;;21.37;64.42;100638.13;5328098;26;33380;-80
2023/09/26 05:18:41;;;;;;;0.47;0.47;;;;;;;21.43;64.20;100634.97;5365569;26;33385;-80
2023/09/26 05:21:09;;;;;;;3.55;1.87;;;;;;;21.46;64.39;100637.41;5346827;26;33945;-81
2023/09/26 05:23:37;;;;;;;4.03;1.42;;;;;;;21.51;63.99;100635.25;5347329;26;33538;-81
2023/09/26 05:26:07;;;;;;;1.30;1.20;;;;;;;21.43;64.70;100637.63;5366028;26;34981;-80
2023/09/26 05:28:34;;;;;;;1.15;1.08;;;;;;;21.77;63.41;100640.44;5365635;26;33288;-82
2023/09/26 05:31:03;;;;;;;0.65;0.65;;;;;;;21.71;63.48;100641.78;5346018;26;33316;-80
2023/09/26 05:33:31;;;;;;;1.62;1.52;;;;;;;21.61;64.19;100641.63;5365246;26;33733;-80
2023/09/26 05:35:59;;;;;;;1.52;1.42;;;;;;;21.83;63.47;100640.81;5328315;26;32789;-80
2023/09/26 05:38:26;;;;;;;0.80;0.80;;;;;;;21.88;63.12;100637.75;5346287;26;32405;-81
2023/09/26 05:40:54;;;;;;;1.15;0.62;;;;;;;21.67;63.81;100641.13;5367922;26;33858;-81
2023/09/26 05:43:22;;;;;;;0.28;0.28;;;;;;;21.91;63.23;100637.53;5368100;26;33911;-80
2023/09/26 05:45:51;;;;;;;1.77;1.42;;;;;;;22.19;62.48;100647.03;5347358;26;33888;-80
2023/09/26 05:48:19;;;;;;;2.40;0.70;;;;;;;22.02;62.59;100640.22;5349463;26;33164;-80
2023/09/26 05:50:47;;;;;;;1.73;1.62;;;;;;;22.09;62.14;100646.00;5349254;26;33559;-81
2023/09/26 05:53:17;;;;;;;0.82;0.82;;;;;;;22.34;61.46;100651.19;5363496;26;33928;-80
2023/09/26 05:55:45;;;;;;;0.95;0.88;;;;;;;22.16;61.72;100647.25;5347609;26;32987;-80
2023/09/26 05:58:12;;;;;;;2.15;1.42;;;;;;;22.08;62.09;100650.53;5367488;26;33306;-80
2023/09/26 06:00:40;;;;;;;1.33;1.15;;;;;;;22.48;60.29;100642.00;5349573;26;33367;-80
2023/09/26 06:03:08;;;;;;;1.70;1.60;;;;;;;22.17;61.41;100649.84;5367918;26;34055;-80
2023/09/26 06:05:36;;;;;;;5.50;2.40;;;;;;;22.30;61.13;100651.56;5349621;26;33016;-80
2023/09/26 06:08:04;;;;;;;5.50;1.23;;;;;;;22.08;61.41;100642.47;5348957;26;32637;-80
2023/09/26 06:10:32;;;;;;;3.33;0.73;;;;;;;22.18;61.41;100646.16;5349283;26;33405;-80
2023/09/26 06:13:00;;;;;;;9.23;1.65;;;;;;;22.44;60.64;100645.94;5348421;26;34688;-80
2023/09/26 06:15:28;;;;;;;0.45;0.45;;;;;;;22.20;61.31;100643.34;5368170;26;33553;-80
2023/09/26 06:18:02;;;;;;;15.07;1.40;;;;;;;22.33;60.83;100648.62;5349252;26;33584;-80
2023/09/26 06:20:30;;;;;;;1.58;1.27;;;;;;;22.20;61.19;100649.59;5366556;26;33828;-80
2023/09/26 06:22:58;;;;;;;1.60;1.48;;;;;;;22.45;60.01;100639.56;5349869;26;33982;-80
2023/09/26 06:25:25;;;;;;;1.05;1.05;;;;;;;22.35;59.94;100641.28;5367368;26;33925;-80
2023/09/26 06:28:00;;;;;;;1.33;1.12;;;;;;;22.33;60.30;100641.41;5349857;26;32764;-80
2023/09/26 06:30:29;;;;;;;2.55;1.85;;;;;;;22.43;59.99;100633.47;5349058;26;32888;-80
2023/09/26 06:32:57;;;;;;;1.25;0.88;;;;;;;22.44;59.92;100640.53;5388140;26;33552;-81
2023/09/26 06:35:25;;;;;;;0.75;0.75;;;;;;;21.88;61.46;100633.25;5349294;26;34803;-80
2023/09/26 06:37:52;;;;;;;0.62;0.60;;;;;;;22.13;61.05;100642.12;5367161;26;33543;-80
2023/09/26 06:40:20;;;;;;;1.20;1.10;;;;;;;22.45;60.10;100637.72;5349128;26;34608;-81
2023/09/26 06:42:48;;;;;;;2.67;1.10;;;;;;;22.55;59.89;100637.88;5331559;26;32828;-80
2023/09/26 06:45:16;;;;;;;4.60;1.30;;;;;;;22.53;59.42;100645.19;5367632;26;33828;-81
2023/09/26 06:47:43;;;;;;;1.65;1.55;;;;;;;22.86;58.66;100635.38;5349293;26;33434;-80
2023/09/26 06:50:12;;;;;;;1.00;1.00;;;;;;;22.66;59.31;100639.69;5367699;26;33182;-81
2023/09/26 06:52:40;;;;;;;2.83;1.40;;;;;;;22.73;59.12;100640.87;5388448;26;33576;-80
2023/09/26 06:55:10;;;;;;;2.47;1.73;;;;;;;22.79;58.63;100639.53;5349246;26;32974;-81
2023/09/26 06:57:40;;;;;;;0.65;0.65;;;;;;;22.78;58.41;100643.19;5332025;26;33851;-80
2023/09/26 07:00:13;;;;;;;0.95;0.95;;;;;;;23.16;56.83;100637.37;5349852;26;34615;-80
2023/09/26 07:02:41;;;;;;;2.80;1.58;;;;;;;22.82;58.46;100647.34;5369224;26;34053;-80
2023/09/26 07:05:09;;;;;;;1.25;1.17;;;;;;;23.00;57.85;100640.50;5348558;26;32956;-80
2023/09/26 07:07:38;;;;;;;1.95;0.68;;;;;;;22.83;58.78;100641.84;5367984;26;34308;-80
2023/09/26 07:10:07;;;;;;;0.62;0.62;;;;;;;23.15;57.72;100644.63;5368052;26;33634;-80
2023/09/26 07:12:35;;;;;;;1.08;1.08;;;;;;;23.56;57.55;100644.84;5349276;26;34719;-81
2023/09/26 07:15:03;;;;;;;2.37;1.85;;;;;;;23.17;56.81;100645.38;5330485;26;33159;-80
2023/09/26 07:17:39;;;;;;;2.58;1.83;;;;;;;23.30;57.00;100647.03;5330549;26;32864;-80
2023/09/26 07:20:33;;;;;;;1.62;1.52;;;;;;;23.40;56.88;100640.72;5317385;26;34720;-80
2023/09/26 07:23:03;;;;;;;1.35;1.25;;;;;;;23.60;56.22;100639.06;5337358;26;34355;-81
2023/09/26 07:25:32;;;;;;;3.65;1.80;;;;;;;23.61;56.88;100643.47;5301027;26;33744;-80
2023/09/26 07:28:00;;;;;;;5.12;1.23;;;;;;;23.52;55.92;100650.47;5318958;26;34353;-80
2023/09/26 07:30:28;;;;;;;2.15;1.08;;;;;;;23.47;56.58;100644.63;5318879;26;32948;-80
2023/09/26 07:32:55;;;;;;;0.90;0.85;;;;;;;23.28;56.87;100654.37;5320975;26;33533;-82
2023/09/26 07:35:25;;;;;;;2.00;1.00;;;;;;;23.47;56.75;100659.94;5321445;26;34836;-81
2023/09/26 07:37:58;;;;;;;1.83;1.25;;;;;;;23.36;56.30;100654.59;5321589;26;33535;-82
2023/09/26 07:40:26;;;;;;;1.42;1.33;;;;;;;23.07;58.26;100665.09;5303093;26;32874;-81
2023/09/26 07:42:56;;;;;;;1.48;1.23;;;;;;;23.69;56.82;100667.97;5321933;26;33248;-81
2023/09/26 07:45:24;;;;;;;3.95;1.98;;;;;;;23.86;56.28;100673.75;5319196;26;34469;-81
2023/09/26 07:47:52;;;;;;;0.57;0.57;;;;;;;23.58;56.31;100676.06;5321961;26;33733;-81
2023/09/26 07:50:20;;;;;;;1.50;1.40;;;;;;;23.97;55.66;100670.97;5324805;26;34425;-82
2023/09/26 07:52:48;;;;;;;7.62;2.17;;;;;;;23.90;55.76;100675.22;5326690;26;33922;-81
2023/09/26 07:55:15;;;;;;;1.10;0.68;;;;;;;23.43;57.25;100674.66;5307955;26;34628;-81
2023/09/26 07:57:43;;;;;;;3.17;0.82;;;;;;;23.52;58.00;100681.97;5345078;26;33668;-81
2023/09/26 08:00:12;;;;;;;3.22;2.15;;;;;;;24.11;56.15;100683.28;5344551;26;35213;-81
2023/09/26 08:02:40;;;;;;;3.15;1.67;;;;;;;24.23;54.71;100676.84;5343924;26;33181;-81
2023/09/26 08:05:08;;;;;;;15.50;0.65;;;;;;;24.08;55.98;100673.63;5344990;26;34197;-81
2023/09/26 08:07:38;;;;;;;2.10;1.58;;;;;;;24.14;56.84;100677.63;5326837;26;33664;-81
2023/09/26 08:10:06;;;;;;;1.08;1.08;;;;;;;24.08;56.06;100673.63;5363740;26;34307;-81
2023/09/26 08:12:37;;;;;;;0.70;0.70;;;;;;;24.31;56.30;100681.53;5326830;26;33866;-82
2023/09/26 08:15:07;;;;;;;6.50;2.15;;;;;;;24.29;55.20;100689.78;5326534;26;33380;-81
2023/09/26 08:17:35;;;;;;;2.62;1.30;;;;;;;24.50;55.33;100679.00;5345847;26;33958;-82
2023/09/26 08:20:03;;;;;;;1.77;1.02;;;;;;;24.19;55.78;100678.94;5344999;26;34056;-82
2023/09/26 08:22:31;;;;;;;0.82;0.82;;;;;;;24.52;54.68;100687.81;5327280;26;33959;-81
2023/09/26 08:24:58;;;;;;;1.35;1.25;;;;;;;24.85;54.70;100675.00;5365029;26;34293;-81
2023/09/26 08:27:26;;;;;;;1.42;1.33;;;;;;;24.48;54.94;100667.47;5345359;26;33833;-82
2023/09/26 08:29:54;;;;;;;1.10;1.02;;;;;;;24.35;55.17;100675.75;5326176;26;33821;-81
2023/09/26 08:32:22;;;;;;;0.77;0.77;;;;;;;24.60;54.67;100673.66;5308273;26;32981;-81
2023/09/26 08:34:50;;;;;;;0.70;0.70;;;;;;;24.60;54.44;100674.50;5345117;26;34161;-82
2023/09/26 08:37:18;;;;;;;1.92;1.80;;;;;;;24.54;54.81;100675.00;5345086;26;34302;-82
2023/09/26 08:39:47;;;;;;;2.30;1.58;;;;;;;24.83;54.87;100672.44;5344814;26;33802;-82
2023/09/26 08:42:22;;;;;;;5.32;2.72;;;;;;;24.98;54.00;100675.62;5345145;26;33925;-82
2023/09/26 08:44:50;;;;;;;4.10;2.58;;;;;;;24.78;54.54;100672.84;5330524;26;33094;-81
2023/09/26 08:47:23;;;;;;;1.98;1.87;;;;;;;25.09;52.93;100669.25;5344684;26;33704;-81
2023/09/26 08:49:53;;;;;;;2.28;1.92;;;;;;;25.08;53.61;100668.41;5326954;26;33418;-81
2023/09/26 08:52:22;;;;;;;4.00;2.97;;;;;;;25.44;52.76;100660.59;5326809;26;33429;-81
2023/09/26 08:54:50;;;;;;;1.80;1.65;;;;;;;25.59;51.32;100663.75;5326252;26;33151;-81
2023/09/26 08:57:19;;;;;;;0.68;0.68;;;;;;;25.60;51.70;100654.66;5346055;26;34022;-81
2023/09/26 08:59:48;;;;;;;4.90;1.52;;;;;;;25.75;51.88;100654.09;5327606;26;32720;-81
2023/09/26 09:02:16;;;;;;;0.73;0.70;;;;;;;25.72;51.58;100656.19;5346048;26;33062;-82
2023/09/26 09:04:44;;;;;;;0.70;0.70;;;;;;;25.95;52.24;100654.06;5346337;26;34128;-81
2023/09/26 09:07:13;;;;;;;0.50;0.50;;;;;;;26.22;49.77;100654.13;5326996;26;33258;-81
2023/09/26 09:10:07;;;;;;;1.55;1.45;;;;;;;26.22;51.24;100658.69;5365812;26;33915;-82
2023/09/26 09:12:37;;;;;;;3.12;2.22;;;;;;;26.28;49.10;100653.53;5327266;26;33761;-81
2023/09/26 09:15:14;;;;;;;4.62;1.62;;;;;;;25.99;48.87;100658.19;5345619;26;33624;-81
2023/09/26 09:17:48;;;;;;;1.77;1.55;;;;;;;26.38;48.30;100652.66;5346533;26;33411;-81
2023/09/26 09:20:33;;;;;;;1.90;1.75;;;;;;;26.33;48.51;100649.53;5345761;26;32768;-82
2023/09/26 09:23:06;;;;;;;3.10;1.08;;;;;;;26.46;48.00;100653.66;5309003;26;32769;-81
2023/09/26 09:25:36;;;;;;;2.28;1.48;;;;;;;26.39;48.90;100648.94;5346284;26;33803;-81
2023/09/26 09:28:07;;;;;;;11.10;1.62;;;;;;;26.48;49.37;100653.50;5327227;26;34033;-82
2023/09/26 09:30:42;;;;;;;18.10;3.43;;;;;;;26.74;47.71;100649.09;5326274;26;33923;-81
2023/09/26 09:33:11;;;;;;;2.95;1.90;;;;;;;27.04;47.27;100644.34;5327107;26;34709;-82
2023/09/26 09:35:39;;;;;;;7.68;1.10;;;;;;;27.12;47.06;100641.78;5345985;26;34917;-81
2023/09/26 09:38:12;;;;;;;1.25;1.17;;;;;;;27.21;46.51;100646.28;5307071;26;33760;-81
2023/09/26 09:40:41;;;;;;;1.40;1.27;;;;;;;27.00;46.06;100640.25;5343292;26;33615;-81
2023/09/26 09:43:09;;;;;;;0.65;0.65;;;;;;;27.01;46.02;100639.22;5326290;26;33918;-81
2023/09/26 09:45:37;;;;;;;2.65;1.73;;;;;;;27.09;45.36;100625.81;5327360;26;34304;-81
2023/09/26 09:48:08;;;;;;;0.75;0.75;;;;;;;27.06;44.83;100632.38;5364181;26;33728;-81
2023/09/26 09:50:39;;;;;;;1.85;1.25;;;;;;;27.11;46.05;100620.22;5345598;26;34107;-81
2023/09/26 09:53:08;;;;;;;1.33;1.17;;;;;;;27.34;44.65;100628.75;5327217;26;33136;-81
2023/09/26 09:55:38;;;;;;;1.12;0.85;;;;;;;27.83;44.40;100623.78;5363958;26;33125;-81
2023/09/26 09:58:11;;;;;;;1.67;1.35;;;;;;;27.52;43.50;100621.47;5326371;26;33368;-82
2023/09/26 10:00:42;;;;;;;0.52;0.52;;;;;;;27.58;43.85;100615.41;5328150;26;32731;-81
2023/09/26 10:03:12;;;;;;;3.22;1.98;;;;;;;27.64;43.34;100606.66;5346199;26;33721;-81
2023/09/26 10:05:40;;;;;;;1.90;1.80;;;;;;;27.35;44.27;100608.75;5327310;26;33901;-81
2023/09/26 10:08:09;;;;;;;1.30;1.20;;;;;;;27.60;43.38;100602.56;5345722;26;33986;-81
2023/09/26 10:10:37;;;;;;;1.42;1.33;;;;;;;27.95;42.42;100601.62;5345239;26;33918;-82
2023/09/26 10:13:07;;;;;;;1.00;0.80;;;;;;;27.64;43.51;100603.09;5346096;26;33936;-82
2023/09/26 10:16:19;;;;;;;0.62;0.62;;;;;;;27.88;42.98;100594.31;5314931;26;34545;-82
2023/09/26 10:18:49;;;;;;;0.47;0.47;;;;;;;28.28;40.86;100591.81;5307681;26;32707;-83
2023/09/26 10:21:30;;;;;;;8.25;2.17;;;;;;;28.38;41.42;100585.44;5327735;26;33132;-82
2023/09/26 10:24:07;;;;;;;0.60;0.60;;;;;;;28.42;40.28;100582.22;5327074;26;35044;-83
2023/09/26 10:26:49;;;;;;;2.03;1.83;;;;;;;29.05;39.86;100576.31;5345823;26;34369;-83
2023/09/26 10:29:20;;;;;;;3.15;2.17;;;;;;;29.23;40.24;100576.16;5325873;26;33411;-83
2023/09/26 10:32:13;;;;;;;7.20;1.92;;;;;;;28.93;39.81;100574.91;5346020;26;33924;-83
2023/09/26 10:34:44;;;;;;;0.57;0.52;;;;;;;29.35;38.18;100579.41;5327056;26;34489;-82
2023/09/26 10:37:32;;;;;;;14.20;2.03;;;;;;;28.99;39.26;100578.84;5345190;26;33813;-82
2023/09/26 10:40:00;;;;;;;2.45;1.15;;;;;;;29.08;37.87;100570.53;5345838;26;33320;-83
2023/09/26 10:42:29;;;;;;;0.73;0.73;;;;;;;29.01;38.74;100563.25;5326631;26;35124;-83
2023/09/26 10:44:59;;;;;;;1.70;1.27;;;;;;;29.56;36.07;100551.69;5313977;26;33732;-83
2023/09/26 10:47:27;;;;;;;6.97;2.00;;;;;;;28.89;37.53;100559.09;5364341;26;34154;-83
2023/09/26 10:49:55;;;;;;;4.55;1.60;;;;;;;29.13;36.47;100558.31;5344381;26;33298;-83
2023/09/26 10:52:49;;;;;;;1.55;1.45;;;;;;;29.37;36.45;100560.19;5329532;26;33567;-83
2023/09/26 10:55:19;;;;;;;2.55;1.37;;;;;;;29.32;34.49;100558.81;5344590;26;33848;-83
2023/09/26 10:57:52;;;;;;;;;;;;;;;29.38;35.33;100551.00;5308545;26;33236;-83
2023/09/26 11:00:19;;;;;;;1.80;1.10;;;;;;;29.08;35.34;100550.66;5345626;26;33667;-82
2023/09/26 11:02:50;;;;;;;1.58;1.10;;;;;;;29.29;35.29;100548.31;5345643;26;34143;-83
2023/09/26 11:05:21;;;;;;;1.60;1.50;;;;;;;29.37;35.36;100549.31;5365368;26;34019;-83
2023/09/26 11:07:51;;;;;;;0.95;0.80;;;;;;;29.48;35.06;100544.38;5345491;26;34566;-83
2023/09/26 11:10:20;;;;;;;8.32;0.82;;;;;;;29.63;34.06;100539.13;5344559;26;34587;-83
2023/09/26 11:12:49;;;;;;;28.70;1.95;;;;;;;29.76;34.60;100539.41;5344703;26;33445;-83
2023/09/26 11:15:16;;;;;;;1.45;0.82;;;;;;;29.99;34.80;100538.69;5345490;26;34922;-83
2023/09/26 11:17:49;;;;;;;2.70;1.00;;;;;;;29.73;34.00;100533.50;5345237;26;33057;-83
2023/09/26 11:20:17;;;;;;;15.10;1.77;;;;;;;30.24;33.98;100531.28;5325697;26;34079;-83
2023/09/26 11:22:48;;;;;;;1.17;1.12;;;;;;;30.03;33.66;100520.97;5344707;26;34089;-83
2023/09/26 11:25:16;;;;;;;2.70;2.00;;;;;;;30.42;32.80;100522.88;5346014;26;33994;-83
2023/09/26 11:27:46;;;;;;;1.37;1.27;;;;;;;29.98;33.10;100531.53;5344285;26;34099;-83
2023/09/26 11:30:17;;;;;;;1.35;1.25;;;;;;;29.76;32.80;100522.22;5344334;26;34065;-83
2023/09/26 11:32:48;;;;;;;;;;;;;;;29.90;32.70;100518.78;5327062;26;33377;-83
2023/09/26 11:35:18;;;;;;;0.65;0.65;;;;;;;30.41;32.46;100516.56;5365425;26;35236;-83
2023/09/26 11:37:54;;;;;;;1.15;1.05;;;;;;;30.63;31.49;100514.09;5326949;26;34572;-83